createdAt,value
2018-01-11T00:01:06.961Z,96.40
2018-01-11T00:03:35.361Z,96.40
2018-01-11T00:06:03.671Z,96.30
2018-01-11T00:08:31.999Z,96.20
2018-01-11T00:11:00.329Z,96.10
2018-01-11T00:13:29.389Z,96.10
2018-01-11T00:15:58.487Z,96.10
2018-01-11T00:18:27.827Z,96.50
2018-01-11T00:20:56.140Z,96.20
2018-01-11T00:23:24.488Z,96.20
2018-01-11T00:25:52.819Z,96.20
2018-01-11T00:28:21.129Z,96.30
2018-01-11T00:30:50.195Z,96.30
2018-01-11T00:33:18.529Z,96.30
2018-01-11T00:35:46.877Z,96.50
2018-01-11T00:38:15.190Z,96.50
2018-01-11T00:40:43.521Z,96.50
2018-01-11T00:43:12.563Z,96.60
2018-01-11T00:45:41.637Z,96.70
2018-01-11T00:48:09.959Z,96.70
2018-01-11T00:50:38.295Z,96.80
2018-01-11T00:53:06.660Z,96.80
2018-01-11T00:55:35.015Z,96.80
2018-01-11T00:58:03.325Z,96.80
2018-01-11T01:00:31.665Z,96.70
2018-01-11T01:03:00.004Z,96.70
2018-01-11T01:05:28.316Z,96.70
2018-01-11T01:07:57.401Z,96.80
2018-01-11T01:10:25.727Z,96.80
2018-01-11T01:12:54.874Z,96.80
2018-01-11T01:15:23.199Z,96.90
2018-01-11T01:17:51.575Z,97.10
2018-01-11T01:20:19.888Z,97.50
2018-01-11T01:22:48.207Z,97.30
2018-01-11T01:25:16.556Z,97.30
2018-01-11T01:27:44.885Z,97.40
2018-01-11T01:30:13.949Z,97.30
2018-01-11T01:32:42.285Z,97.30
2018-01-11T01:35:10.624Z,97.40
2018-01-11T01:37:38.943Z,97.50
2018-01-11T01:40:07.329Z,97.50
2018-01-11T01:42:35.662Z,97.30
2018-01-11T01:45:03.969Z,97.20
2018-01-11T01:47:32.510Z,97.30
2018-01-11T01:50:00.829Z,97.30
2018-01-11T01:52:29.140Z,97.20
2018-01-11T01:54:57.449Z,97.40
2018-01-11T01:57:25.792Z,97.10
2018-01-11T01:59:54.876Z,97.00
2018-01-11T02:02:23.962Z,96.90
2018-01-11T02:04:52.272Z,96.90
2018-01-11T02:07:21.345Z,96.80
2018-01-11T02:09:49.666Z,96.80
2018-01-11T02:12:18.002Z,96.70
2018-01-11T02:14:46.325Z,96.70
2018-01-11T02:17:14.694Z,96.80
2018-01-11T02:19:43.772Z,96.80
2018-01-11T02:22:12.099Z,96.70
2018-01-11T02:24:40.432Z,96.70
2018-01-11T02:27:08.760Z,96.60
2018-01-11T02:29:37.873Z,96.70
2018-01-11T02:32:06.212Z,96.90
2018-01-11T02:34:34.548Z,96.90
2018-01-11T02:37:02.858Z,96.70
2018-01-11T02:39:31.169Z,96.90
2018-01-11T02:42:00.232Z,97.00
2018-01-11T02:44:28.550Z,97.10
2018-01-11T02:46:57.616Z,96.90
2018-01-11T02:49:25.938Z,96.90
2018-01-11T02:51:55.024Z,96.60
2018-01-11T02:54:24.102Z,96.70
2018-01-11T02:56:52.422Z,96.70
2018-01-11T02:59:20.744Z,96.60
2018-01-11T03:01:49.054Z,96.60
2018-01-11T03:04:17.386Z,96.70
2018-01-11T03:06:45.731Z,96.60
2018-01-11T03:09:14.060Z,96.60
2018-01-11T03:11:42.448Z,96.50
2018-01-11T03:14:10.794Z,96.30
2018-01-11T03:16:39.899Z,96.20
2018-01-11T03:19:08.244Z,96.20
2018-01-11T03:21:36.564Z,96.20
2018-01-11T03:24:04.880Z,96.20
2018-01-11T03:26:33.214Z,96.10
2018-01-11T03:29:02.333Z,96.10
2018-01-11T03:31:30.641Z,96.10
2018-01-11T03:33:58.956Z,96.10
2018-01-11T03:36:27.284Z,96.00
2018-01-11T03:38:55.600Z,95.90
2018-01-11T03:41:23.908Z,95.90
2018-01-11T03:43:52.238Z,95.90
2018-01-11T03:46:20.604Z,96.10
2018-01-11T03:48:48.924Z,95.70
2018-01-11T03:51:17.280Z,95.90
2018-01-11T03:53:45.575Z,96.00
2018-01-11T03:56:13.975Z,96.20
2018-01-11T03:58:42.284Z,96.00
2018-01-11T04:01:10.678Z,95.90
2018-01-11T04:03:39.754Z,95.70
2018-01-11T04:06:08.072Z,95.70
2018-01-11T04:08:37.148Z,95.80
2018-01-11T04:11:05.478Z,95.80
2018-01-11T04:13:33.774Z,96.00
2018-01-11T04:16:02.087Z,95.70
2018-01-11T04:18:30.404Z,95.70
2018-01-11T04:20:58.710Z,95.60
2018-01-11T04:23:27.024Z,95.60
2018-01-11T04:25:55.330Z,95.50
2018-01-11T04:28:24.412Z,95.30
2018-01-11T04:30:52.716Z,95.30
2018-01-11T04:33:21.808Z,95.10
2018-01-11T04:35:50.918Z,94.90
2018-01-11T04:38:20.038Z,95.00
2018-01-11T04:40:48.378Z,95.00
2018-01-11T04:43:16.704Z,95.00
2018-01-11T04:45:45.027Z,94.90
2018-01-11T04:48:13.352Z,94.90
2018-01-11T04:50:41.692Z,95.10
2018-01-11T04:53:10.049Z,95.10
2018-01-11T04:55:38.384Z,95.10
2018-01-11T04:58:07.505Z,94.80
2018-01-11T05:00:41.464Z,94.80
2018-01-11T05:03:09.786Z,94.70
2018-01-11T05:05:38.864Z,94.60
2018-01-11T05:08:07.180Z,94.60
2018-01-11T05:10:35.566Z,94.90
2018-01-11T05:13:03.916Z,94.60
2018-01-11T05:15:32.237Z,94.50
2018-01-11T05:18:00.563Z,94.50
2018-01-11T05:20:28.934Z,94.50
2018-01-11T05:22:57.300Z,94.50
2018-01-11T05:25:25.631Z,94.40
2018-01-11T05:27:53.976Z,94.40
2018-01-11T05:30:22.302Z,94.40
2018-01-11T05:32:51.396Z,94.40
2018-01-11T05:35:20.484Z,94.50
2018-01-11T05:37:48.812Z,94.40
2018-01-11T05:40:17.126Z,94.60
2018-01-11T05:42:45.592Z,94.80
2018-01-11T05:45:13.940Z,94.90
2018-01-11T05:47:43.018Z,95.10
2018-01-11T05:50:12.122Z,95.20
2018-01-11T05:52:41.192Z,95.10
2018-01-11T05:55:09.531Z,95.10
2018-01-11T05:57:37.858Z,95.10
2018-01-11T06:00:06.944Z,94.90
2018-01-11T06:02:35.272Z,95.00
2018-01-11T06:05:04.348Z,94.90
2018-01-11T06:07:32.700Z,94.80
2018-01-11T06:10:01.038Z,94.80
2018-01-11T06:12:30.126Z,94.60
2018-01-11T06:14:58.444Z,94.60
2018-01-11T06:17:26.746Z,94.60
2018-01-11T06:19:55.070Z,94.50
2018-01-11T06:22:24.147Z,94.60
2018-01-11T06:24:53.178Z,94.60
2018-01-11T06:27:22.272Z,94.60
2018-01-11T06:29:51.365Z,94.30
2018-01-11T06:32:19.678Z,94.50
2018-01-11T06:34:48.036Z,95.00
2018-01-11T06:37:17.158Z,94.70
2018-01-11T06:39:45.494Z,94.50
2018-01-11T06:42:13.983Z,94.50
2018-01-11T06:44:42.404Z,94.60
2018-01-11T06:47:11.546Z,94.80
2018-01-11T06:49:39.852Z,94.80
2018-01-11T06:52:08.191Z,94.80
2018-01-11T06:54:36.513Z,94.90
2018-01-11T06:57:04.839Z,95.00
2018-01-11T06:59:33.178Z,95.00
2018-01-11T07:02:01.554Z,95.10
2018-01-11T07:04:30.002Z,95.10
2018-01-11T07:06:58.530Z,95.00
2018-01-11T07:09:26.860Z,94.90
2018-01-11T07:11:55.154Z,94.80
2018-01-11T07:14:23.472Z,94.90
2018-01-11T07:16:51.806Z,95.00
2018-01-11T07:19:20.104Z,95.00
2018-01-11T07:21:48.424Z,95.10
2018-01-11T07:24:16.790Z,95.10
2018-01-11T07:26:45.208Z,95.10
2018-01-11T07:29:13.506Z,95.10
2018-01-11T07:31:42.575Z,95.00
2018-01-11T07:34:10.908Z,95.00
2018-01-11T07:36:39.222Z,94.90
2018-01-11T07:39:07.540Z,94.90
2018-01-11T07:41:36.628Z,94.80
2018-01-11T07:44:05.707Z,94.70
2018-01-11T07:46:34.033Z,94.70
2018-01-11T07:49:02.359Z,94.60
2018-01-11T07:51:30.695Z,94.40
2018-01-11T07:53:59.823Z,94.40
2018-01-11T07:56:28.149Z,94.40
2018-01-11T07:58:56.472Z,94.40
2018-01-11T08:01:24.819Z,94.40
2018-01-11T08:03:53.899Z,94.50
2018-01-11T08:06:22.261Z,94.50
2018-01-11T08:08:50.583Z,94.40
2018-01-11T08:11:18.920Z,94.30
2018-01-11T08:13:47.225Z,94.30
2018-01-11T08:16:15.535Z,94.20
2018-01-11T08:18:44.771Z,94.40
2018-01-11T08:21:13.125Z,94.30
2018-01-11T08:23:42.187Z,94.40
2018-01-11T08:26:10.517Z,94.40
2018-01-11T08:28:38.843Z,94.30
2018-01-11T08:31:07.187Z,94.30
2018-01-11T08:33:35.497Z,94.30
2018-01-11T08:36:03.817Z,94.30
2018-01-11T08:38:32.151Z,94.40
2018-01-11T08:41:00.461Z,94.40
2018-01-11T08:43:28.777Z,94.50
2018-01-11T08:45:57.867Z,94.50
2018-01-11T08:48:26.185Z,94.50
2018-01-11T08:50:54.501Z,94.60
2018-01-11T08:53:22.815Z,94.50
2018-01-11T08:55:51.999Z,94.70
2018-01-11T08:58:20.325Z,94.80
2018-01-11T09:00:48.647Z,95.00
2018-01-11T09:03:16.973Z,95.10
2018-01-11T09:05:46.780Z,95.10
2018-01-11T09:08:15.294Z,95.10
2018-01-11T09:10:43.635Z,95.10
2018-01-11T09:13:11.969Z,95.10
2018-01-11T09:15:40.266Z,95.10
2018-01-11T09:18:08.603Z,95.10
2018-01-11T09:20:38.261Z,95.20
2018-01-11T09:23:07.029Z,95.20
2018-01-11T09:25:35.384Z,95.20
2018-01-11T09:28:04.451Z,94.90
2018-01-11T09:30:32.772Z,94.80
2018-01-11T09:33:01.844Z,94.50
2018-01-11T09:35:30.197Z,94.50
2018-01-11T09:37:58.509Z,94.30
2018-01-11T09:40:26.831Z,94.20
2018-01-11T09:42:55.171Z,94.30
2018-01-11T09:45:23.529Z,94.50
2018-01-11T09:47:51.842Z,94.70
2018-01-11T09:50:20.156Z,94.80
2018-01-11T09:52:48.477Z,94.90
2018-01-11T09:55:16.799Z,94.80
2018-01-11T09:57:45.870Z,94.80
2018-01-11T10:00:14.187Z,94.80
2018-01-11T10:02:43.282Z,94.50
2018-01-11T10:05:13.087Z,94.50
2018-01-11T10:07:41.412Z,94.50
2018-01-11T10:10:09.744Z,94.60
2018-01-11T10:12:38.072Z,94.50
2018-01-11T10:15:06.431Z,94.30
2018-01-11T10:17:34.760Z,94.20
2018-01-11T10:20:03.081Z,94.20
2018-01-11T10:22:31.409Z,94.30
2018-01-11T10:24:59.734Z,94.20
2018-01-11T10:27:28.051Z,94.00
2018-01-11T10:29:56.373Z,93.90
2018-01-11T10:32:24.722Z,93.80
2018-01-11T10:34:53.081Z,93.70
2018-01-11T10:37:22.233Z,93.60
2018-01-11T10:39:50.559Z,93.60
2018-01-11T10:42:19.659Z,93.50
2018-01-11T10:44:48.777Z,93.30
2018-01-11T10:47:17.901Z,93.40
2018-01-11T10:49:46.196Z,93.40
2018-01-11T10:52:14.565Z,93.30
2018-01-11T10:54:42.892Z,93.30
2018-01-11T10:57:11.255Z,93.10
2018-01-11T10:59:39.576Z,93.00
2018-01-11T11:02:14.289Z,93.00
2018-01-11T11:04:43.195Z,93.00
2018-01-11T11:07:13.082Z,93.00
2018-01-11T11:09:41.512Z,92.90
2018-01-11T11:12:09.863Z,93.00
2018-01-11T11:14:38.197Z,93.00
2018-01-11T11:17:06.511Z,93.00
2018-01-11T11:19:34.845Z,93.00
2018-01-11T11:22:03.178Z,93.00
2018-01-11T11:24:31.630Z,93.00
2018-01-11T11:27:00.788Z,93.10
2018-01-11T11:29:30.048Z,93.40
2018-01-11T11:31:59.236Z,92.90
2018-01-11T11:34:27.569Z,92.80
2018-01-11T11:36:55.893Z,92.90
2018-01-11T11:39:24.206Z,93.00
2018-01-11T11:41:52.554Z,93.00
2018-01-11T11:46:54.834Z,93.00
2018-01-11T11:49:23.146Z,92.90
2018-01-11T11:51:51.467Z,92.70
2018-01-11T11:56:54.310Z,92.60
2018-01-11T11:59:22.646Z,92.60
2018-01-11T12:01:51.567Z,92.60
2018-01-11T12:04:20.647Z,92.60
2018-01-11T12:06:48.969Z,92.60
2018-01-11T12:09:17.304Z,92.60
2018-01-11T12:11:45.632Z,92.70
2018-01-11T12:14:13.945Z,92.70
2018-01-11T12:16:42.247Z,92.70
2018-01-11T12:19:10.592Z,92.80
2018-01-11T12:21:38.919Z,92.80
2018-01-11T12:24:07.237Z,92.80
2018-01-11T12:26:35.545Z,92.70
2018-01-11T12:29:03.856Z,92.60
2018-01-11T12:31:32.190Z,92.50
2018-01-11T12:34:00.522Z,92.60
2018-01-11T12:36:28.850Z,92.60
2018-01-11T12:38:57.238Z,92.70
2018-01-11T12:41:25.564Z,92.80
2018-01-11T12:43:53.901Z,92.80
2018-01-11T12:46:22.228Z,92.60
2018-01-11T12:48:50.557Z,92.70
2018-01-11T12:51:18.872Z,92.70
2018-01-11T12:53:47.967Z,92.70
2018-01-11T12:56:16.282Z,92.70
2018-01-11T12:58:44.661Z,92.60
2018-01-11T13:01:13.056Z,92.60
2018-01-11T13:03:41.394Z,92.80
2018-01-11T13:06:09.701Z,92.80
2018-01-11T13:08:38.019Z,92.70
2018-01-11T13:11:07.092Z,92.80
2018-01-11T13:13:35.420Z,92.70
2018-01-11T13:16:03.752Z,92.70
2018-01-11T13:18:32.086Z,92.70
2018-01-11T13:21:00.398Z,92.60
2018-01-11T13:23:28.712Z,92.70
2018-01-11T13:25:57.046Z,92.80
2018-01-11T13:28:25.384Z,93.00
2018-01-11T13:30:54.496Z,92.70
2018-01-11T13:33:22.822Z,92.70
2018-01-11T13:35:51.152Z,92.80
2018-01-11T13:38:20.264Z,92.90
2018-01-11T13:40:48.570Z,92.90
2018-01-11T13:43:16.946Z,92.80
2018-01-11T13:45:45.322Z,92.90
2018-01-11T13:48:13.628Z,93.00
2018-01-11T13:50:41.956Z,93.00
2018-01-11T13:53:10.373Z,93.00
2018-01-11T13:55:38.649Z,93.00
2018-01-11T13:58:06.985Z,93.00
2018-01-11T14:00:35.321Z,93.10
2018-01-11T14:03:04.440Z,93.10
2018-01-11T14:05:32.746Z,93.10
2018-01-11T14:08:01.086Z,93.10
2018-01-11T14:10:29.424Z,93.20
2018-01-11T14:12:57.762Z,93.20
2018-01-11T14:15:26.085Z,93.10
2018-01-11T14:17:54.423Z,93.10
2018-01-11T14:20:22.777Z,93.20
2018-01-11T14:22:51.160Z,93.20
2018-01-11T14:25:19.491Z,93.30
2018-01-11T14:27:47.826Z,93.20
2018-01-11T14:30:16.171Z,93.20
2018-01-11T14:32:44.477Z,93.10
2018-01-11T14:35:13.570Z,93.10
2018-01-11T14:37:42.690Z,93.20
2018-01-11T14:40:11.026Z,93.10
2018-01-11T14:42:39.352Z,93.10
2018-01-11T14:45:07.710Z,93.00
2018-01-11T14:47:36.061Z,93.10
2018-01-11T14:50:04.413Z,93.30
2018-01-11T14:52:32.712Z,93.10
2018-01-11T14:55:01.029Z,93.00
2018-01-11T14:57:29.368Z,92.90
2018-01-11T14:59:57.693Z,92.90
2018-01-11T15:02:26.066Z,92.90
2018-01-11T15:04:54.418Z,92.90
2018-01-11T15:07:22.756Z,92.90
2018-01-11T15:09:51.105Z,92.90
2018-01-11T15:12:19.416Z,92.90
2018-01-11T15:14:47.752Z,92.90
2018-01-11T15:17:16.162Z,93.00
2018-01-11T15:19:44.504Z,92.90
2018-01-11T15:22:12.822Z,92.90
2018-01-11T15:24:41.138Z,92.90
2018-01-11T15:27:10.225Z,92.80
2018-01-11T15:29:38.666Z,92.80
2018-01-11T15:32:06.990Z,92.90
2018-01-11T15:34:35.324Z,92.90
2018-01-11T15:37:03.641Z,93.00
2018-01-11T15:39:32.010Z,93.00
2018-01-11T15:42:00.326Z,93.00
2018-01-11T15:44:28.654Z,93.10
2018-01-11T15:46:56.986Z,93.00
2018-01-11T15:49:25.304Z,93.00
2018-01-11T15:51:53.623Z,93.00
2018-01-11T15:54:21.941Z,93.10
2018-01-11T15:56:51.018Z,93.10
2018-01-11T15:59:19.332Z,93.10
2018-01-11T16:01:47.752Z,93.20
2018-01-11T16:04:16.096Z,93.10
2018-01-11T16:06:45.255Z,93.20
2018-01-11T16:09:13.570Z,93.20
2018-01-11T16:11:42.669Z,93.30
2018-01-11T16:14:11.758Z,93.50
2018-01-11T16:16:40.151Z,93.40
2018-01-11T16:19:08.507Z,93.50
2018-01-11T16:21:36.952Z,93.50
2018-01-11T16:24:05.297Z,93.60
2018-01-11T16:26:33.610Z,93.80
2018-01-11T16:29:01.930Z,93.80
2018-01-11T16:31:30.264Z,94.00
2018-01-11T16:33:58.582Z,94.00
2018-01-11T16:36:26.928Z,93.90
2018-01-11T16:38:55.243Z,93.80
2018-01-11T16:41:23.576Z,93.90
2018-01-11T16:43:52.679Z,93.90
2018-01-11T16:46:22.512Z,93.90
2018-01-11T16:48:50.851Z,93.90
2018-01-11T16:51:19.185Z,93.90
2018-01-11T16:53:47.491Z,93.90
2018-01-11T16:56:15.800Z,93.90
2018-01-11T16:58:44.144Z,94.00
2018-01-11T17:01:12.445Z,94.00
2018-01-11T17:03:40.766Z,94.10
2018-01-11T17:06:09.880Z,94.00
2018-01-11T17:08:38.216Z,94.00
2018-01-11T17:11:06.650Z,94.00
2018-01-11T17:13:34.974Z,94.00
2018-01-11T17:16:03.306Z,94.10
2018-01-11T17:18:31.624Z,94.00
2018-01-11T17:20:59.938Z,94.00
2018-01-11T17:23:28.250Z,94.10
2018-01-11T17:25:57.335Z,94.10
2018-01-11T17:28:26.426Z,94.10
2018-01-11T17:30:54.754Z,94.10
2018-01-11T17:33:23.062Z,94.30
2018-01-11T17:35:51.397Z,94.00
2018-01-11T17:38:19.749Z,94.10
2018-01-11T17:40:48.093Z,94.00
2018-01-11T17:43:16.396Z,94.00
2018-01-11T17:45:44.709Z,94.00
2018-01-11T17:48:13.772Z,94.10
2018-01-11T17:50:42.141Z,94.10
2018-01-11T17:53:10.579Z,94.10
2018-01-11T17:55:39.713Z,94.20
2018-01-11T17:58:08.077Z,94.20
2018-01-11T18:00:36.385Z,94.20
2018-01-11T18:03:04.703Z,94.20
2018-01-11T18:05:33.035Z,94.20
2018-01-11T18:08:01.386Z,94.30
2018-01-11T18:10:30.525Z,94.30
2018-01-11T18:12:58.865Z,94.30
2018-01-11T18:15:27.966Z,94.40
2018-01-11T18:17:57.135Z,94.20
2018-01-11T18:20:25.482Z,94.20
2018-01-11T18:22:54.548Z,94.20
2018-01-11T18:25:22.869Z,94.20
2018-01-11T18:27:51.212Z,94.20
2018-01-11T18:30:20.294Z,94.00
2018-01-11T18:32:48.607Z,94.00
2018-01-11T18:35:16.942Z,94.00
2018-01-11T18:37:45.249Z,94.10
2018-01-11T18:40:13.562Z,94.10
2018-01-11T18:42:41.906Z,94.20
2018-01-11T18:45:11.005Z,94.20
2018-01-11T18:47:39.315Z,94.20
2018-01-11T18:50:08.399Z,94.10
2018-01-11T18:52:37.476Z,94.20
2018-01-11T18:55:05.780Z,94.10
2018-01-11T18:57:34.857Z,94.20
2018-01-11T19:00:03.192Z,94.10
2018-01-11T19:02:31.531Z,94.20
2018-01-11T19:04:59.857Z,94.20
2018-01-11T19:07:28.213Z,94.20
2018-01-11T19:09:57.325Z,94.20
2018-01-11T19:12:25.649Z,94.20
2018-01-11T19:14:53.965Z,94.20
2018-01-11T19:17:23.056Z,94.20
2018-01-11T19:19:51.493Z,94.10
2018-01-11T19:22:19.796Z,94.10
2018-01-11T19:24:48.110Z,94.10
2018-01-11T19:27:16.419Z,94.10
2018-01-11T19:29:44.752Z,94.20
2018-01-11T19:32:13.053Z,94.00
2018-01-11T19:34:41.384Z,93.90
2018-01-11T19:37:09.723Z,93.90
2018-01-11T19:39:38.055Z,93.80
2018-01-11T19:42:06.386Z,93.80
2018-01-11T19:44:34.699Z,93.90
2018-01-11T19:47:03.010Z,93.90
2018-01-11T19:49:31.312Z,93.90
2018-01-11T19:51:59.677Z,93.80
2018-01-11T19:54:28.813Z,93.80
2018-01-11T19:56:57.130Z,93.80
2018-01-11T19:59:25.455Z,93.80
2018-01-11T20:01:53.800Z,93.70
2018-01-11T20:04:22.144Z,93.70
2018-01-11T20:06:50.515Z,93.70
2018-01-11T20:09:18.917Z,93.80
2018-01-11T20:11:47.373Z,93.80
2018-01-11T20:14:15.687Z,93.70
2018-01-11T20:16:44.788Z,93.70
2018-01-11T20:19:13.877Z,93.70
2018-01-11T20:21:42.960Z,93.90
2018-01-11T20:24:11.264Z,93.70
2018-01-11T20:26:40.361Z,93.80
2018-01-11T20:29:09.430Z,93.80
2018-01-11T20:31:37.758Z,93.80
2018-01-11T20:34:06.861Z,93.80
2018-01-11T20:36:35.163Z,93.90
2018-01-11T20:39:03.629Z,94.00
2018-01-11T20:41:31.930Z,94.00
2018-01-11T20:44:00.241Z,94.00
2018-01-11T20:46:28.565Z,93.90
2018-01-11T20:48:57.631Z,94.00
2018-01-11T20:51:25.921Z,94.00
2018-01-11T20:53:54.244Z,94.00
2018-01-11T20:56:22.543Z,94.10
2018-01-11T20:58:50.845Z,93.90
2018-01-11T21:01:19.155Z,93.90
2018-01-11T21:03:48.219Z,94.20
2018-01-11T21:06:17.297Z,93.90
2018-01-11T21:08:45.618Z,93.90
2018-01-11T21:11:13.978Z,93.90
2018-01-11T21:13:42.299Z,93.90
2018-01-11T21:16:11.424Z,93.80
2018-01-11T21:18:39.711Z,94.20
2018-01-11T21:21:08.018Z,93.70
2018-01-11T21:23:36.334Z,93.70
2018-01-11T21:26:04.639Z,93.70
2018-01-11T21:28:33.732Z,93.70
2018-01-11T21:31:02.786Z,93.70
2018-01-11T21:33:31.084Z,93.70
2018-01-11T21:35:59.393Z,93.70
2018-01-11T21:38:28.469Z,93.60
2018-01-11T21:40:56.760Z,93.60
2018-01-11T21:43:25.073Z,93.60
2018-01-11T21:45:53.367Z,93.60
2018-01-11T21:48:21.693Z,93.60
2018-01-11T21:50:50.001Z,93.50
2018-01-11T21:53:19.079Z,93.40
2018-01-11T21:55:47.377Z,93.40
2018-01-11T21:58:16.429Z,93.40
2018-01-11T22:00:44.745Z,93.40
2018-01-11T22:03:13.057Z,93.30
2018-01-11T22:05:41.371Z,93.60
2018-01-11T22:08:09.677Z,93.20
2018-01-11T22:10:37.993Z,93.30
2018-01-11T22:13:07.045Z,93.30
2018-01-11T22:15:35.437Z,93.30
2018-01-11T22:18:03.737Z,93.30
2018-01-11T22:20:32.822Z,93.30
2018-01-11T22:23:01.257Z,93.30
2018-01-11T22:25:30.427Z,93.30
2018-01-11T22:27:58.753Z,93.30
2018-01-11T22:30:27.127Z,93.40
2018-01-11T22:32:55.437Z,93.40
2018-01-11T22:35:23.740Z,93.30
2018-01-11T22:37:52.056Z,93.30
2018-01-11T22:40:20.403Z,93.30
2018-01-11T22:42:49.474Z,93.30
2018-01-11T22:45:17.780Z,93.30
2018-01-11T22:47:46.116Z,93.30
2018-01-11T22:50:14.431Z,93.20
2018-01-11T22:52:42.742Z,93.20
2018-01-11T22:55:11.041Z,93.20
2018-01-11T22:57:39.398Z,93.20
2018-01-11T23:00:09.378Z,93.10
2018-01-11T23:02:37.671Z,93.10
2018-01-11T23:05:05.976Z,93.00
2018-01-11T23:07:35.059Z,92.90
2018-01-11T23:10:03.452Z,92.90
2018-01-11T23:12:32.533Z,93.00
2018-01-11T23:15:00.835Z,93.00
2018-01-11T23:17:29.136Z,93.10
2018-01-11T23:19:58.216Z,93.40
2018-01-11T23:22:26.532Z,93.10
2018-01-11T23:24:54.920Z,93.10
2018-01-11T23:27:23.247Z,93.20
2018-01-11T23:29:51.563Z,93.20
2018-01-11T23:32:19.909Z,93.20
2018-01-11T23:34:48.208Z,93.40
2018-01-11T23:37:17.188Z,93.30
2018-01-11T23:39:45.487Z,93.30
2018-01-11T23:42:13.798Z,93.30
2018-01-11T23:44:42.864Z,93.20
2018-01-11T23:47:11.942Z,93.20
2018-01-11T23:49:40.271Z,93.20
2018-01-11T23:52:09.376Z,93.10
2018-01-11T23:54:38.442Z,93.00
2018-01-11T23:57:08.252Z,93.00
2018-01-11T23:59:36.577Z,93.00
